createdAt,value
2017-11-21T00:02:20.789Z,10.10
2017-11-21T00:04:52.704Z,10.10
2017-11-21T00:07:24.577Z,10.20
2017-11-21T00:09:57.492Z,10.20
2017-11-21T00:12:29.387Z,10.20
2017-11-21T00:15:01.306Z,10.20
2017-11-21T00:17:33.188Z,10.30
2017-11-21T00:20:05.102Z,10.30
2017-11-21T00:22:37.751Z,10.30
2017-11-21T00:25:10.409Z,10.30
2017-11-21T00:27:42.294Z,10.30
2017-11-21T00:30:14.196Z,10.30
2017-11-21T00:32:46.076Z,10.30
2017-11-21T00:35:17.981Z,10.30
2017-11-21T00:37:49.852Z,10.30
2017-11-21T00:40:21.762Z,10.30
2017-11-21T00:42:53.644Z,10.30
2017-11-21T00:45:25.552Z,10.30
2017-11-21T00:47:58.202Z,10.30
2017-11-21T00:50:30.103Z,10.30
2017-11-21T00:53:01.977Z,10.30
2017-11-21T00:55:33.880Z,10.30
2017-11-21T00:58:05.762Z,10.40
2017-11-21T01:00:38.430Z,10.40
2017-11-21T01:03:10.300Z,10.40
2017-11-21T01:05:42.973Z,10.40
2017-11-21T01:08:14.848Z,10.40
2017-11-21T01:10:46.819Z,10.40
2017-11-21T01:13:18.701Z,10.40
2017-11-21T01:15:50.671Z,10.50
2017-11-21T01:18:22.611Z,10.50
2017-11-21T01:20:54.537Z,10.50
2017-11-21T01:23:26.413Z,10.50
2017-11-21T01:25:59.085Z,10.50
2017-11-21T01:28:31.746Z,10.50
2017-11-21T01:31:03.637Z,10.50
2017-11-21T01:33:35.537Z,10.50
2017-11-21T01:36:07.437Z,10.50
2017-11-21T01:38:40.089Z,10.50
2017-11-21T01:41:12.000Z,10.50
2017-11-21T01:43:43.879Z,10.50
2017-11-21T01:46:15.791Z,10.40
2017-11-21T01:48:47.665Z,10.50
2017-11-21T01:51:20.342Z,10.40
2017-11-21T01:53:53.024Z,10.40
2017-11-21T01:56:25.709Z,10.40
2017-11-21T01:58:58.344Z,10.40
2017-11-21T02:01:30.249Z,10.40
2017-11-21T02:04:02.130Z,10.40
2017-11-21T02:06:34.024Z,10.40
2017-11-21T02:09:05.909Z,10.40
2017-11-21T02:11:38.589Z,10.40
2017-11-21T02:14:10.462Z,10.40
2017-11-21T02:16:46.090Z,10.40
2017-11-21T02:19:17.977Z,10.40
2017-11-21T02:21:50.650Z,10.40
2017-11-21T02:24:23.318Z,10.40
2017-11-21T02:26:55.985Z,10.40
2017-11-21T02:29:27.870Z,10.40
2017-11-21T02:31:59.787Z,10.50
2017-11-21T02:34:31.673Z,10.50
2017-11-21T02:37:03.606Z,10.50
2017-11-21T02:39:35.491Z,10.50
2017-11-21T02:42:08.188Z,10.50
2017-11-21T02:44:40.080Z,10.50
2017-11-21T02:47:12.001Z,10.50
2017-11-21T02:49:44.641Z,10.50
2017-11-21T02:52:16.551Z,10.50
2017-11-21T02:54:48.429Z,10.50
2017-11-21T02:57:20.346Z,10.50
2017-11-21T02:59:52.230Z,10.50
2017-11-21T03:02:24.900Z,10.50
2017-11-21T03:04:57.536Z,10.50
2017-11-21T03:07:29.448Z,10.50
2017-11-21T03:10:02.102Z,10.50
2017-11-21T03:12:34.000Z,10.50
2017-11-21T03:15:05.873Z,10.60
2017-11-21T03:17:37.783Z,10.60
2017-11-21T03:20:21.564Z,10.60
2017-11-21T03:23:05.389Z,10.60
2017-11-21T03:28:44.110Z,10.70
2017-11-21T03:31:15.994Z,10.70
2017-11-21T03:33:47.912Z,10.70
2017-11-21T03:36:19.808Z,10.70
2017-11-21T03:38:52.697Z,10.80
2017-11-21T03:41:25.286Z,10.80
2017-11-21T03:43:57.197Z,10.80
2017-11-21T03:46:29.081Z,10.80
2017-11-21T03:49:01.741Z,10.80
2017-11-21T03:51:33.616Z,10.80
2017-11-21T03:54:06.288Z,10.80
2017-11-21T03:56:38.170Z,10.80
2017-11-21T03:59:10.090Z,10.80
2017-11-21T04:01:41.995Z,10.80
2017-11-21T04:04:15.312Z,10.80
2017-11-21T04:06:47.198Z,10.80
2017-11-21T04:09:19.109Z,10.80
2017-11-21T04:11:51.749Z,10.80
2017-11-21T04:14:23.650Z,10.80
2017-11-21T04:16:55.546Z,10.80
2017-11-21T04:19:27.474Z,10.80
2017-11-21T04:21:59.367Z,10.80
2017-11-21T04:24:31.253Z,10.80
2017-11-21T04:27:03.193Z,10.80
2017-11-21T04:29:35.118Z,10.80
2017-11-21T04:32:07.001Z,10.80
2017-11-21T04:34:38.916Z,10.80
2017-11-21T04:37:11.562Z,10.90
2017-11-21T04:39:43.482Z,10.80
2017-11-21T04:42:15.355Z,10.90
2017-11-21T04:44:47.260Z,10.90
2017-11-21T04:47:19.146Z,10.90
2017-11-21T04:49:54.269Z,10.90
2017-11-21T04:52:26.922Z,10.90
2017-11-21T04:54:58.828Z,10.90
2017-11-21T04:57:30.707Z,10.90
2017-11-21T05:00:03.475Z,10.90
2017-11-21T05:02:35.359Z,10.90
2017-11-21T05:05:07.592Z,10.90
2017-11-21T05:07:39.471Z,10.90
2017-11-21T05:10:11.360Z,10.90
2017-11-21T05:12:43.254Z,10.90
2017-11-21T05:15:15.445Z,10.90
2017-11-21T05:17:47.330Z,10.90
2017-11-21T05:20:20.015Z,11.00
2017-11-21T05:22:51.891Z,11.00
2017-11-21T05:25:24.118Z,11.00
2017-11-21T05:27:56.008Z,11.00
2017-11-21T05:30:27.994Z,11.00
2017-11-21T05:33:11.838Z,11.00
2017-11-21T05:35:43.753Z,11.00
2017-11-21T05:38:15.637Z,11.00
2017-11-21T05:40:47.556Z,11.10
2017-11-21T05:43:19.460Z,11.10
2017-11-21T05:45:51.388Z,11.10
2017-11-21T05:48:23.286Z,11.00
2017-11-21T05:50:55.205Z,11.00
2017-11-21T05:53:27.094Z,11.00
2017-11-21T05:55:59.023Z,11.10
2017-11-21T05:58:31.693Z,11.00
2017-11-21T06:01:03.611Z,11.00
2017-11-21T06:03:35.511Z,11.00
2017-11-21T06:06:08.294Z,11.00
2017-11-21T06:08:41.074Z,11.00
2017-11-21T06:11:13.732Z,11.00
2017-11-21T06:13:45.704Z,11.00
2017-11-21T06:16:18.388Z,11.00
2017-11-21T06:18:51.041Z,11.00
2017-11-21T06:21:22.949Z,11.00
2017-11-21T06:23:54.829Z,11.00
2017-11-21T06:26:26.734Z,11.00
2017-11-21T06:28:58.605Z,11.00
2017-11-21T06:31:31.409Z,11.00
2017-11-21T06:34:03.297Z,11.00
2017-11-21T06:36:35.209Z,11.00
2017-11-21T06:39:07.878Z,11.00
2017-11-21T06:41:40.572Z,11.00
2017-11-21T06:44:13.226Z,11.00
2017-11-21T06:46:45.133Z,11.00
2017-11-21T06:49:17.009Z,11.00
2017-11-21T06:51:48.927Z,10.90
2017-11-21T06:54:21.557Z,10.90
2017-11-21T06:56:53.465Z,10.90
2017-11-21T06:59:26.110Z,10.90
2017-11-21T07:01:58.034Z,10.80
2017-11-21T07:04:29.893Z,10.80
2017-11-21T07:07:01.810Z,10.80
2017-11-21T07:09:33.685Z,10.80
2017-11-21T07:12:06.471Z,10.80
2017-11-21T07:14:39.115Z,10.80
2017-11-21T07:17:11.167Z,10.80
2017-11-21T07:19:43.041Z,10.80
2017-11-21T07:22:14.956Z,10.80
2017-11-21T07:24:46.845Z,10.80
2017-11-21T07:27:19.505Z,10.80
2017-11-21T07:29:51.385Z,10.80
2017-11-21T07:32:23.278Z,10.80
2017-11-21T07:34:55.926Z,10.80
2017-11-21T07:37:27.846Z,10.80
2017-11-21T07:40:00.001Z,10.80
2017-11-21T07:42:31.898Z,10.80
2017-11-21T07:45:03.773Z,10.80
2017-11-21T07:47:35.686Z,10.80
2017-11-21T07:50:07.569Z,10.80
2017-11-21T07:52:39.470Z,10.80
2017-11-21T07:55:11.377Z,10.80
2017-11-21T07:57:43.264Z,10.80
2017-11-21T08:00:15.155Z,10.80
2017-11-21T08:02:47.057Z,10.80
2017-11-21T08:05:18.941Z,10.80
2017-11-21T08:07:50.854Z,10.80
2017-11-21T08:10:23.518Z,10.80
2017-11-21T08:12:55.410Z,10.80
2017-11-21T08:15:27.290Z,10.90
2017-11-21T08:17:59.197Z,10.90
2017-11-21T08:20:31.069Z,10.90
2017-11-21T08:23:03.740Z,11.00
2017-11-21T08:25:35.610Z,11.00
2017-11-21T08:28:08.294Z,11.00
2017-11-21T08:30:40.937Z,11.00
2017-11-21T08:33:12.858Z,11.00
2017-11-21T08:35:44.802Z,11.00
2017-11-21T08:38:16.726Z,11.10
2017-11-21T08:40:50.365Z,11.10
2017-11-21T08:43:24.929Z,11.10
2017-11-21T08:45:56.822Z,11.10
2017-11-21T08:48:28.732Z,11.10
2017-11-21T08:51:00.597Z,11.10
2017-11-21T08:53:32.502Z,11.10
2017-11-21T08:56:04.373Z,11.20
2017-11-21T08:58:37.033Z,11.30
2017-11-21T09:01:08.933Z,11.20
2017-11-21T09:03:40.825Z,11.30
2017-11-21T09:06:12.729Z,11.30
2017-11-21T09:08:45.402Z,11.40
2017-11-21T09:11:17.278Z,11.40
2017-11-21T09:13:49.205Z,11.40
2017-11-21T09:16:21.092Z,11.40
2017-11-21T09:18:53.761Z,11.50
2017-11-21T09:21:25.645Z,11.50
2017-11-21T09:23:57.549Z,11.50
2017-11-21T09:26:29.421Z,11.50
2017-11-21T09:29:01.441Z,11.50
2017-11-21T09:31:33.309Z,11.50
2017-11-21T09:34:05.228Z,11.50
2017-11-21T09:36:37.105Z,11.60
2017-11-21T09:39:09.775Z,11.50
2017-11-21T09:41:42.427Z,11.50
2017-11-21T09:44:14.334Z,11.50
2017-11-21T09:46:46.212Z,11.60
2017-11-21T09:49:18.109Z,11.60
2017-11-21T09:51:49.993Z,11.60
2017-11-21T09:54:22.653Z,11.60
2017-11-21T09:56:54.533Z,11.60
2017-11-21T09:59:27.217Z,11.60
2017-11-21T10:02:01.641Z,11.60
2017-11-21T10:04:33.564Z,11.60
2017-11-21T10:07:05.501Z,11.60
2017-11-21T10:09:37.405Z,11.60
2017-11-21T10:12:09.286Z,11.60
2017-11-21T10:14:41.962Z,11.50
2017-11-21T10:17:14.630Z,11.50
2017-11-21T10:19:47.296Z,11.50
2017-11-21T10:22:19.180Z,11.50
2017-11-21T10:24:51.837Z,11.50
2017-11-21T10:27:23.708Z,11.50
2017-11-21T10:29:56.377Z,11.50
2017-11-21T10:32:28.252Z,11.50
2017-11-21T10:35:00.917Z,11.50
2017-11-21T10:37:33.576Z,11.50
2017-11-21T10:40:05.486Z,11.50
2017-11-21T10:42:37.361Z,11.50
2017-11-21T10:45:09.253Z,11.50
2017-11-21T10:47:41.137Z,11.60
2017-11-21T10:50:13.044Z,11.60
2017-11-21T10:52:44.920Z,11.60
2017-11-21T10:55:16.833Z,11.60
2017-11-21T10:57:49.465Z,11.60
2017-11-21T11:00:21.380Z,11.60
2017-11-21T11:02:53.258Z,11.60
2017-11-21T11:05:25.180Z,11.70
2017-11-21T11:07:57.821Z,11.70
2017-11-21T11:10:29.746Z,11.70
2017-11-21T11:13:01.621Z,11.70
2017-11-21T11:15:33.522Z,11.70
2017-11-21T11:18:05.411Z,11.80
2017-11-21T11:20:38.050Z,11.90
2017-11-21T11:23:09.937Z,11.80
2017-11-21T11:25:42.568Z,11.90
2017-11-21T11:28:14.484Z,11.90
2017-11-21T11:30:47.125Z,11.90
2017-11-21T11:33:19.054Z,11.90
2017-11-21T11:35:50.927Z,11.90
2017-11-21T11:38:22.834Z,11.90
2017-11-21T11:40:54.788Z,11.90
2017-11-21T11:43:26.686Z,11.90
2017-11-21T11:45:58.631Z,11.90
2017-11-21T11:48:31.300Z,11.90
2017-11-21T11:51:03.950Z,11.90
2017-11-21T11:53:35.870Z,11.90
2017-11-21T11:56:07.768Z,11.90
2017-11-21T11:58:39.679Z,11.90
2017-11-21T12:01:11.580Z,11.90
2017-11-21T12:03:43.496Z,12.00
2017-11-21T12:06:15.382Z,12.10
2017-11-21T12:08:47.311Z,12.10
2017-11-21T12:11:19.952Z,12.30
2017-11-21T12:13:51.854Z,12.30
2017-11-21T12:16:23.748Z,12.30
2017-11-21T12:18:55.972Z,12.30
2017-11-21T12:21:28.619Z,12.40
2017-11-21T12:24:00.523Z,12.40
2017-11-21T12:26:32.486Z,12.40
2017-11-21T12:29:04.406Z,12.40
2017-11-21T12:31:36.281Z,12.40
2017-11-21T12:34:08.968Z,12.40
2017-11-21T12:36:41.614Z,12.30
2017-11-21T12:39:13.836Z,12.30
2017-11-21T12:41:45.709Z,12.30
2017-11-21T12:44:17.614Z,12.30
2017-11-21T12:46:49.517Z,12.30
2017-11-21T12:49:21.413Z,12.20
2017-11-21T12:51:53.282Z,12.10
2017-11-21T12:54:25.185Z,12.10
2017-11-21T12:56:57.820Z,12.10
2017-11-21T12:59:29.733Z,12.00
2017-11-21T13:02:01.620Z,12.10
2017-11-21T13:04:33.528Z,12.00
2017-11-21T13:07:05.405Z,12.10
2017-11-21T13:09:38.064Z,12.00
2017-11-21T13:12:09.941Z,12.00
2017-11-21T13:14:42.607Z,12.00
2017-11-21T13:17:14.479Z,12.00
2017-11-21T13:19:47.163Z,12.00
2017-11-21T13:22:19.801Z,12.10
2017-11-21T13:24:51.699Z,12.00
2017-11-21T13:27:24.363Z,12.00
2017-11-21T13:29:56.277Z,12.00
2017-11-21T13:32:28.140Z,12.00
2017-11-21T13:35:00.028Z,12.00
2017-11-21T13:37:31.906Z,12.00
2017-11-21T13:40:04.580Z,12.00
2017-11-21T13:42:36.473Z,12.00
2017-11-21T13:45:08.377Z,12.00
2017-11-21T13:47:40.253Z,12.00
2017-11-21T13:50:12.169Z,12.00
2017-11-21T13:52:44.049Z,12.10
2017-11-21T13:55:16.725Z,12.10
2017-11-21T13:57:48.637Z,12.10
2017-11-21T14:00:21.307Z,12.00
2017-11-21T14:02:53.947Z,12.00
2017-11-21T14:05:26.556Z,12.00
2017-11-21T14:07:59.240Z,12.00
2017-11-21T14:10:31.155Z,11.90
2017-11-21T14:13:03.020Z,12.00
2017-11-21T14:15:34.926Z,12.00
2017-11-21T14:18:07.582Z,11.90
2017-11-21T14:20:39.485Z,11.90
2017-11-21T14:23:11.362Z,11.90
2017-11-21T14:25:43.257Z,11.80
2017-11-21T14:28:15.171Z,11.80
2017-11-21T14:30:47.076Z,11.80
2017-11-21T14:33:18.956Z,11.80
2017-11-21T14:35:50.856Z,11.80
2017-11-21T14:38:22.756Z,11.70
2017-11-21T14:40:54.669Z,11.70
2017-11-21T14:43:26.544Z,11.70
2017-11-21T14:45:58.444Z,11.70
2017-11-21T14:48:30.316Z,11.70
2017-11-21T14:51:02.228Z,11.70
2017-11-21T14:53:34.104Z,11.70
2017-11-21T14:56:05.997Z,11.70
2017-11-21T14:58:37.884Z,11.70
2017-11-21T15:01:10.541Z,11.70
2017-11-21T15:03:43.177Z,11.70
2017-11-21T15:06:15.078Z,11.60
2017-11-21T15:08:46.949Z,11.70
2017-11-21T15:11:19.640Z,11.70
2017-11-21T15:13:51.530Z,11.60
2017-11-21T15:16:23.656Z,11.70
2017-11-21T15:18:56.302Z,11.60
2017-11-21T15:21:28.230Z,11.60
2017-11-21T15:24:00.138Z,11.60
2017-11-21T15:26:32.053Z,11.60
2017-11-21T15:29:03.941Z,11.60
2017-11-21T15:31:35.844Z,11.60
2017-11-21T15:34:08.482Z,11.50
2017-11-21T15:36:40.389Z,11.50
2017-11-21T15:39:12.277Z,11.50
2017-11-21T15:41:44.181Z,11.50
2017-11-21T15:44:16.066Z,11.50
2017-11-21T15:46:48.730Z,11.50
2017-11-21T15:49:20.608Z,11.50
2017-11-21T15:51:52.493Z,11.50
2017-11-21T15:54:24.372Z,11.50
2017-11-21T15:56:56.286Z,11.40
2017-11-21T15:59:29.014Z,11.40
2017-11-21T16:02:00.944Z,11.40
2017-11-21T16:04:32.829Z,11.40
2017-11-21T16:07:04.741Z,11.40
2017-11-21T16:09:37.376Z,11.40
2017-11-21T16:12:09.298Z,11.40
2017-11-21T16:14:41.198Z,11.40
2017-11-21T16:17:13.102Z,11.40
2017-11-21T16:19:46.201Z,11.30
2017-11-21T16:22:18.266Z,11.30
2017-11-21T16:24:50.150Z,11.30
2017-11-21T16:27:22.057Z,11.30
2017-11-21T16:29:53.941Z,11.30
2017-11-21T16:32:26.639Z,11.30
2017-11-21T16:34:58.587Z,11.30
2017-11-21T16:37:30.486Z,11.30
2017-11-21T16:40:02.368Z,11.30
2017-11-21T16:42:34.313Z,11.30
2017-11-21T16:45:06.192Z,11.30
2017-11-21T16:47:38.114Z,11.30
2017-11-21T16:50:09.998Z,11.30
2017-11-21T16:52:41.902Z,11.30
2017-11-21T16:55:14.558Z,11.30
2017-11-21T16:57:46.768Z,11.30
2017-11-21T17:00:18.669Z,11.30
2017-11-21T17:02:50.581Z,11.30
2017-11-21T17:05:22.558Z,11.30
2017-11-21T17:07:54.461Z,11.30
2017-11-21T17:10:26.337Z,11.30
2017-11-21T17:12:58.285Z,11.30
2017-11-21T17:15:30.201Z,11.30
2017-11-21T17:18:02.114Z,11.30
2017-11-21T17:20:33.993Z,11.30
2017-11-21T17:23:06.989Z,11.30
2017-11-21T17:25:38.879Z,11.30
2017-11-21T17:28:10.769Z,11.30
2017-11-21T17:30:42.637Z,11.30
2017-11-21T17:33:14.559Z,11.30
2017-11-21T17:35:46.441Z,11.30
2017-11-21T17:38:18.346Z,11.20
2017-11-21T17:40:51.014Z,11.20
2017-11-21T17:43:23.715Z,11.20
2017-11-21T17:45:55.598Z,11.20
2017-11-21T17:48:27.527Z,11.20
2017-11-21T17:50:59.397Z,11.20
2017-11-21T17:53:37.154Z,11.20
2017-11-21T17:56:09.026Z,11.10
2017-11-21T17:58:41.038Z,11.10
2017-11-21T18:01:12.916Z,11.10
2017-11-21T18:03:44.935Z,11.10
2017-11-21T18:06:16.824Z,11.10
2017-11-21T18:08:48.746Z,11.10
2017-11-21T18:11:21.395Z,11.10
2017-11-21T18:13:53.329Z,11.10
2017-11-21T18:16:25.221Z,11.10
2017-11-21T18:18:57.137Z,11.10
2017-11-21T18:21:29.019Z,11.10
2017-11-21T18:24:00.947Z,11.10
2017-11-21T18:26:32.834Z,11.10
2017-11-21T18:29:04.742Z,11.10
2017-11-21T18:31:37.384Z,11.10
2017-11-21T18:34:09.286Z,11.10
2017-11-21T18:36:41.930Z,11.00
2017-11-21T18:39:13.830Z,11.00
2017-11-21T18:41:45.712Z,11.00
2017-11-21T18:44:17.617Z,11.00
2017-11-21T18:46:49.501Z,11.00
2017-11-21T18:49:22.192Z,11.00
2017-11-21T18:51:54.865Z,11.00
2017-11-21T18:54:26.882Z,11.00
2017-11-21T18:56:58.794Z,11.00
2017-11-21T18:59:31.473Z,11.00
2017-11-21T19:02:03.345Z,11.00
2017-11-21T19:04:35.254Z,11.00
2017-11-21T19:07:07.166Z,11.00
2017-11-21T19:09:39.067Z,11.00
2017-11-21T19:12:10.954Z,11.00
2017-11-21T19:14:42.866Z,11.00
2017-11-21T19:17:15.005Z,11.00
2017-11-21T19:19:46.917Z,10.90
2017-11-21T19:22:18.805Z,10.90
2017-11-21T19:24:50.709Z,10.90
2017-11-21T19:27:22.587Z,10.90
2017-11-21T19:29:54.515Z,11.00
2017-11-21T19:32:26.430Z,10.90
2017-11-21T19:34:58.341Z,10.90
2017-11-21T19:37:30.222Z,10.90
2017-11-21T19:40:02.142Z,10.90
2017-11-21T19:42:34.794Z,10.90
2017-11-21T19:45:06.764Z,10.90
2017-11-21T19:47:38.653Z,10.90
2017-11-21T19:50:10.579Z,10.90
2017-11-21T19:52:42.789Z,10.90
2017-11-21T19:55:14.696Z,10.80
2017-11-21T19:57:46.590Z,10.80
2017-11-21T20:00:19.298Z,10.80
2017-11-21T20:02:51.173Z,10.80
2017-11-21T20:05:23.079Z,10.80
2017-11-21T20:07:54.969Z,10.80
2017-11-21T20:10:26.894Z,10.80
2017-11-21T20:12:58.780Z,10.80
2017-11-21T20:15:31.461Z,10.80
2017-11-21T20:18:03.349Z,10.80
2017-11-21T20:20:35.249Z,10.80
2017-11-21T20:23:07.143Z,10.80
2017-11-21T20:25:39.854Z,10.80
2017-11-21T20:28:11.740Z,10.80
2017-11-21T20:30:43.660Z,10.80
2017-11-21T20:33:15.537Z,10.80
2017-11-21T20:35:47.459Z,10.80
2017-11-21T20:38:20.105Z,10.80
2017-11-21T20:40:52.019Z,10.80
2017-11-21T20:43:23.906Z,10.80
2017-11-21T20:45:55.833Z,10.80
2017-11-21T20:48:27.734Z,10.80
2017-11-21T20:50:59.617Z,10.80
2017-11-21T20:53:31.817Z,10.80
2017-11-21T20:56:03.705Z,10.90
2017-11-21T20:58:35.629Z,10.80
2017-11-21T21:01:08.366Z,10.80
2017-11-21T21:03:40.247Z,10.80
2017-11-21T21:06:12.160Z,10.80
2017-11-21T21:08:44.033Z,10.70
2017-11-21T21:11:15.952Z,10.70
2017-11-21T21:13:48.612Z,10.70
2017-11-21T21:16:21.294Z,10.70
2017-11-21T21:18:53.929Z,10.70
2017-11-21T21:21:25.832Z,10.70
2017-11-21T21:23:58.484Z,10.60
2017-11-21T21:26:30.395Z,10.60
2017-11-21T21:29:02.266Z,10.60
2017-11-21T21:31:34.161Z,10.60
2017-11-21T21:34:06.038Z,10.60
2017-11-21T21:36:38.032Z,10.60
2017-11-21T21:39:10.692Z,10.60
2017-11-21T21:41:43.353Z,10.60
2017-11-21T21:44:15.241Z,10.60
2017-11-21T21:46:47.914Z,10.60
2017-11-21T21:49:20.553Z,10.50
